Time;durP1;ratioP1;P1;durP2;ratioP2;P2;SDS_P1;SDS_P2;PMS_P1;PMS_P2;Temp;Humidity;BMP_temperature;BMP_pressure;BME280_temperature;BME280_humidity;BME280_pressure;Samples;Min_cycle;Max_cycle;Signal;HPM_P1;HPM_P2
2022/01/15 00:03:36;;;;;;;;;;;;;;;0.33;100.00;101394.94;8178786;28;20299;-81
2022/01/15 00:07:39;;;;;;;;;;;;;;;0.37;100.00;101391.78;8193725;28;20055;-80
2022/01/15 00:11:41;;;;;;;;;;;;;;;0.40;100.00;101391.47;8198939;28;19922;-81
2022/01/15 00:15:51;;;;;;;;;;;;;;;0.47;100.00;101388.19;8179885;28;19934;-81
2022/01/15 00:19:52;;;;;;;;;;;;;;;0.43;100.00;101391.19;8183885;28;19926;-81
2022/01/15 00:23:54;;;;;;;;;;;;;;;0.45;100.00;101386.50;8181056;28;20001;-81
2022/01/15 00:27:55;;;;;;;;;;;;;;;0.40;100.00;101382.50;8199070;28;20544;-81
2022/01/15 00:31:57;;;;;;;;;;;;;;;0.41;100.00;101385.03;8176732;28;19926;-80
2022/01/15 00:35:58;;;;;;;;;;;;;;;0.49;100.00;101388.91;8189136;28;19926;-81
2022/01/15 00:40:00;;;;;;;;;;;;;;;0.47;100.00;101389.03;8177457;28;20434;-78
2022/01/15 00:44:02;;;;;;;;;;;;;;;0.53;100.00;101387.59;8206378;28;19922;-81
2022/01/15 00:48:03;;;;;;;;;;;;;;;0.56;100.00;101382.72;8185573;28;20308;-81
2022/01/15 00:52:05;;;;;;;;;;;;;;;0.46;100.00;101379.19;8186516;28;19926;-81
2022/01/15 00:56:06;;;;;;;;;;;;;;;0.48;100.00;101373.63;8191353;28;19996;-81
2022/01/15 01:00:09;;;;;;;;;;;;;;;0.40;100.00;101374.38;8183152;28;19981;-81
2022/01/15 01:04:10;;;;;;;;;;;;;;;0.38;100.00;101357.38;8197773;28;19922;-81
2022/01/15 01:08:11;;;;;;;;;;;;;;;0.39;100.00;101361.81;8176401;28;20427;-80
2022/01/15 01:12:27;;;;;;;;;;;;;;;0.38;100.00;101358.22;8188129;28;19946;-81
2022/01/15 01:21:31;;;;;;;;;;;;;;;0.34;100.00;101355.97;8187861;28;19926;-80
2022/01/15 01:25:29;;;;;;;;;;;;;;;0.34;100.00;101353.25;8183364;28;19936;-81
2022/01/15 01:33:36;;;;;;;;;;;;;;;0.29;100.00;101348.25;8185983;28;19922;-80
2022/01/15 01:37:43;;;;;;;;;;;;;;;0.31;100.00;101338.13;8194480;28;19926;-80
2022/01/15 01:42:04;;;;;;;;;;;;;;;0.26;100.00;101342.28;8197554;28;19922;-81
2022/01/15 01:46:31;;;;;;;;;;;;;;;0.28;100.00;101326.72;8193876;28;19934;-81
2022/01/15 01:50:32;;;;;;;;;;;;;;;0.15;100.00;101333.31;8197085;28;19926;-81
2022/01/15 01:54:33;;;;;;;;;;;;;;;-0.04;100.00;101326.03;8180210;28;19977;-80
2022/01/15 01:58:36;;;;;;;;;;;;;;;-0.04;100.00;101330.59;8181321;28;19926;-80
2022/01/15 02:02:38;;;;;;;;;;;;;;;-0.12;100.00;101325.91;8188875;28;19922;-78
2022/01/15 02:06:39;;;;;;;;;;;;;;;-0.09;100.00;101322.94;8172208;28;19933;-81
2022/01/15 02:10:42;;;;;;;;;;;;;;;-0.06;100.00;101317.22;8197789;28;19922;-81
2022/01/15 02:14:43;;;;;;;;;;;;;;;0.03;100.00;101320.03;8193859;28;20347;-80
2022/01/15 02:18:45;;;;;;;;;;;;;;;0.00;100.00;101313.09;8177263;28;20376;-81
2022/01/15 02:27:06;;;;;;;;;;;;;;;-0.10;100.00;101304.94;8195383;28;19926;-81
2022/01/15 02:31:09;;;;;;;;;;;;;;;-0.19;100.00;101308.50;8202548;28;19973;-81
2022/01/15 02:35:11;;;;;;;;;;;;;;;-0.14;100.00;101306.22;8189667;28;20007;-81
2022/01/15 02:39:12;;;;;;;;;;;;;;;-0.21;100.00;101299.66;8213413;28;19930;-81
2022/01/15 02:43:18;;;;;;;;;;;;;;;-0.16;100.00;101305.50;8223961;28;19965;-81
2022/01/15 02:51:39;;;;;;;;;;;;;;;-0.04;100.00;101290.81;8187359;28;19993;-81
2022/01/15 02:55:43;;;;;;;;;;;;;;;-0.05;100.00;101290.97;8192235;28;19927;-81
2022/01/15 02:59:45;;;;;;;;;;;;;;;-0.03;100.00;101279.00;8190807;28;19922;-80
2022/01/15 03:03:47;;;;;;;;;;;;;;;0.04;100.00;101279.25;8192594;28;20291;-80
2022/01/15 03:07:48;;;;;;;;;;;;;;;0.02;100.00;101285.81;8186370;28;19957;-80
2022/01/15 03:11:50;;;;;;;;;;;;;;;0.05;100.00;101280.09;8180844;28;19926;-80
2022/01/15 03:15:52;;;;;;;;;;;;;;;0.12;100.00;101279.38;8185530;28;19922;-80
2022/01/15 03:19:53;;;;;;;;;;;;;;;0.17;100.00;101270.81;8194019;28;19922;-80
2022/01/15 03:23:55;;;;;;;;;;;;;;;0.14;100.00;101265.69;8185900;28;19923;-80
2022/01/15 03:27:56;;;;;;;;;;;;;;;0.16;100.00;101267.25;8191386;28;19923;-81
2022/01/15 03:31:58;;;;;;;;;;;;;;;0.17;100.00;101263.53;8174150;28;19923;-80
2022/01/15 03:35:59;;;;;;;;;;;;;;;0.22;100.00;101265.81;8186500;28;19930;-80
2022/01/15 03:40:01;;;;;;;;;;;;;;;0.28;100.00;101264.38;8179070;28;19923;-80
2022/01/15 03:44:02;;;;;;;;;;;;;;;0.35;100.00;101260.91;8195193;28;19936;-80
2022/01/15 03:48:04;;;;;;;;;;;;;;;0.39;100.00;101265.03;8188012;28;19933;-80
2022/01/15 03:52:06;;;;;;;;;;;;;;;0.36;100.00;101257.19;8188685;28;20379;-80
2022/01/15 03:56:07;;;;;;;;;;;;;;;0.27;100.00;101263.50;8196914;28;19923;-80
2022/01/15 04:00:12;;;;;;;;;;;;;;;0.31;100.00;101253.22;8177403;28;19922;-80
2022/01/15 04:04:13;;;;;;;;;;;;;;;0.27;100.00;101251.78;8193967;28;19923;-79
2022/01/15 04:08:15;;;;;;;;;;;;;;;0.23;100.00;101245.81;8196051;28;19930;-78
2022/01/15 04:12:18;;;;;;;;;;;;;;;0.27;100.00;101251.78;8182609;28;19922;-80
2022/01/15 04:16:20;;;;;;;;;;;;;;;0.23;100.00;101241.25;8188877;28;19926;-80
2022/01/15 04:20:23;;;;;;;;;;;;;;;0.22;100.00;101244.13;8197188;28;19931;-80
2022/01/15 04:24:24;;;;;;;;;;;;;;;0.19;100.00;101245.25;8178246;28;19946;-80
2022/01/15 04:28:28;;;;;;;;;;;;;;;0.21;100.00;101237.84;8187192;28;20395;-81
2022/01/15 04:32:30;;;;;;;;;;;;;;;0.26;100.00;101244.66;8171649;28;19930;-80
2022/01/15 04:36:31;;;;;;;;;;;;;;;0.17;100.00;101235.56;8193712;28;19926;-81
2022/01/15 04:40:32;;;;;;;;;;;;;;;0.33;100.00;101238.53;8185069;28;20002;-81
2022/01/15 04:44:34;;;;;;;;;;;;;;;0.38;100.00;101235.34;8194806;28;19941;-80
2022/01/15 04:48:36;;;;;;;;;;;;;;;0.39;100.00;101237.06;8175469;28;20328;-79
2022/01/15 04:52:38;;;;;;;;;;;;;;;0.33;100.00;101232.25;8196399;28;19930;-80
2022/01/15 04:56:39;;;;;;;;;;;;;;;0.37;100.00;101228.22;8194272;28;19922;-81
2022/01/15 05:00:41;;;;;;;;;;;;;;;0.40;100.00;101227.94;8191885;28;19923;-80
2022/01/15 05:04:43;;;;;;;;;;;;;;;0.45;100.00;101228.34;8175480;28;19922;-80
2022/01/15 05:08:46;;;;;;;;;;;;;;;0.38;100.00;101235.34;8194676;28;19926;-80
2022/01/15 05:12:49;;;;;;;;;;;;;;;0.41;100.00;101218.78;8192881;28;20431;-80
2022/01/15 05:16:50;;;;;;;;;;;;;;;0.48;100.00;101221.72;8190911;28;19974;-81
2022/01/15 05:20:52;;;;;;;;;;;;;;;0.53;100.00;101219.44;8190963;28;20384;-80
2022/01/15 05:24:53;;;;;;;;;;;;;;;0.52;100.00;101209.59;8195542;28;19922;-80
2022/01/15 05:28:55;;;;;;;;;;;;;;;0.53;100.00;101212.16;8187153;28;19981;-81
2022/01/15 05:32:56;;;;;;;;;;;;;;;0.59;100.00;101210.69;8175863;28;20285;-80
2022/01/15 05:36:57;;;;;;;;;;;;;;;0.57;100.00;101201.88;8188513;28;19922;-80
2022/01/15 05:40:59;;;;;;;;;;;;;;;0.58;100.00;101209.00;8206207;28;19923;-80
2022/01/15 05:45:00;;;;;;;;;;;;;;;0.60;100.00;101191.56;8178448;28;19926;-81
2022/01/15 05:49:02;;;;;;;;;;;;;;;0.59;100.00;101195.28;8188461;28;19927;-81
2022/01/15 05:53:04;;;;;;;;;;;;;;;0.61;100.00;101192.41;8197418;28;19942;-80
2022/01/15 05:57:05;;;;;;;;;;;;;;;0.63;100.00;101193.97;8193188;28;20307;-81
2022/01/15 06:01:07;;;;;;;;;;;;;;;0.66;100.00;101181.97;8173736;28;19930;-81
2022/01/15 06:05:08;;;;;;;;;;;;;;;0.69;100.00;101181.69;8188824;28;21276;-80
2022/01/15 06:09:10;;;;;;;;;;;;;;;0.66;100.00;101182.81;8186543;28;20012;-80
2022/01/15 06:13:11;;;;;;;;;;;;;;;0.72;100.00;101180.53;8201709;28;19926;-81
2022/01/15 06:17:13;;;;;;;;;;;;;;;0.75;100.00;101174.78;8188910;28;20388;-81
2022/01/15 06:21:14;;;;;;;;;;;;;;;0.74;100.00;101173.91;8192244;28;19923;-80
2022/01/15 06:25:20;;;;;;;;;;;;;;;0.79;100.00;101166.16;8188504;28;19927;-81
2022/01/15 06:29:22;;;;;;;;;;;;;;;0.83;100.00;101164.00;8196624;28;20324;-80
2022/01/15 06:33:24;;;;;;;;;;;;;;;0.87;100.00;101158.13;8186474;28;19930;-81
2022/01/15 06:37:26;;;;;;;;;;;;;;;0.91;100.00;101162.22;8181415;28;19952;-80
2022/01/15 06:41:28;;;;;;;;;;;;;;;0.92;100.00;101163.06;8198475;28;19930;-81
2022/01/15 06:45:30;;;;;;;;;;;;;;;0.91;100.00;101169.53;8180384;28;19927;-80
2022/01/15 06:49:31;;;;;;;;;;;;;;;0.96;100.00;101166.34;8201157;28;19961;-81
2022/01/15 06:53:32;;;;;;;;;;;;;;;1.00;100.00;101168.59;8189144;28;19982;-80
2022/01/15 06:57:34;;;;;;;;;;;;;;;1.00;100.00;101168.59;8195763;28;19926;-80
2022/01/15 07:01:35;;;;;;;;;;;;;;;0.94;100.00;101176.50;8197680;28;20291;-80
2022/01/15 07:05:37;;;;;;;;;;;;;;;0.96;100.00;101178.06;8187409;28;19977;-81
2022/01/15 07:09:38;;;;;;;;;;;;;;;1.02;100.00;101182.03;8198600;28;20458;-81
2022/01/15 07:13:40;;;;;;;;;;;;;;;0.97;100.00;101165.34;8197418;28;19954;-80
2022/01/15 07:17:45;;;;;;;;;;;;;;;0.97;100.00;101160.75;8195683;28;19969;-81
2022/01/15 07:21:47;;;;;;;;;;;;;;;1.07;100.00;101168.81;8191217;28;20384;-81
2022/01/15 07:25:48;;;;;;;;;;;;;;;1.06;100.00;101161.69;8199910;28;19926;-81
2022/01/15 07:29:50;;;;;;;;;;;;;;;1.08;100.00;101170.53;8197835;28;19922;-80
2022/01/15 07:33:51;;;;;;;;;;;;;;;1.16;100.00;101178.78;8192563;28;19923;-81
2022/01/15 07:37:52;;;;;;;;;;;;;;;1.24;100.00;101175.28;8176812;28;19977;-80
2022/01/15 07:41:56;;;;;;;;;;;;;;;1.25;100.00;101171.53;8186791;28;19922;-80
2022/01/15 07:45:57;;;;;;;;;;;;;;;1.31;100.00;101179.94;8180765;28;20023;-79
2022/01/15 07:49:58;;;;;;;;;;;;;;;1.38;100.00;101171.16;8196845;28;19927;-80
2022/01/15 07:54:00;;;;;;;;;;;;;;;1.26;100.00;101171.38;8173733;28;19930;-80
2022/01/15 07:58:02;;;;;;;;;;;;;;;1.33;100.00;101179.75;8189699;28;19924;-80
2022/01/15 08:02:04;;;;;;;;;;;;;;;1.43;100.00;101182.38;8193678;28;20017;-80
2022/01/15 08:06:07;;;;;;;;;;;;;;;1.36;100.00;101174.84;8180181;28;19965;-80
2022/01/15 08:10:10;;;;;;;;;;;;;;;1.46;100.00;101182.06;8194961;28;20398;-80
2022/01/15 08:14:11;;;;;;;;;;;;;;;1.47;100.00;101184.63;8193618;28;20008;-80
2022/01/15 08:18:13;;;;;;;;;;;;;;;1.59;100.00;101185.25;8182986;28;20037;-80
2022/01/15 08:22:16;;;;;;;;;;;;;;;1.62;100.00;101179.50;8188359;28;19961;-80
2022/01/15 08:26:18;;;;;;;;;;;;;;;1.66;100.00;101174.59;8191815;28;19926;-80
2022/01/15 08:30:22;;;;;;;;;;;;;;;1.70;100.00;101176.00;8195420;28;20276;-80
2022/01/15 08:34:24;;;;;;;;;;;;;;;1.70;100.00;101174.13;8199151;28;19926;-80
2022/01/15 08:38:26;;;;;;;;;;;;;;;1.81;100.00;101163.00;8200213;28;19930;-80
2022/01/15 08:42:48;;;;;;;;;;;;;;;1.90;100.00;101168.47;8195684;28;19922;-81
2022/01/15 08:46:51;;;;;;;;;;;;;;;1.97;100.00;101164.97;8200443;28;19989;-80
2022/01/15 08:50:52;;;;;;;;;;;;;;;2.10;100.00;101161.81;8205123;28;19926;-80
2022/01/15 08:54:54;;;;;;;;;;;;;;;2.16;100.00;101163.88;8195558;28;19989;-80
2022/01/15 08:58:55;;;;;;;;;;;;;;;2.10;100.00;101161.81;8198749;28;19981;-80
2022/01/15 09:02:57;;;;;;;;;;;;;;;2.20;100.00;101157.09;8194784;28;19926;-80
2022/01/15 09:06:59;;;;;;;;;;;;;;;2.32;100.00;101164.97;8168064;28;20344;-79
2022/01/15 09:11:00;;;;;;;;;;;;;;;2.43;100.00;101170.13;8192303;28;20485;-80
2022/01/15 09:15:02;;;;;;;;;;;;;;;2.45;100.00;101159.94;8197501;28;19969;-80
2022/01/15 09:19:04;;;;;;;;;;;;;;;2.43;100.00;101161.97;8198142;28;19930;-82
2022/01/15 09:23:05;;;;;;;;;;;;;;;2.48;100.00;101162.31;8183374;28;20206;-79
2022/01/15 09:31:27;;;;;;;;;;;;;;;2.62;100.00;101152.69;8198276;28;19973;-80
2022/01/15 09:35:29;;;;;;;;;;;;;;;2.55;100.00;101151.63;8197909;28;19930;-80
2022/01/15 09:39:30;;;;;;;;;;;;;;;2.62;100.00;101153.53;8202123;28;19949;-80
2022/01/15 09:43:32;;;;;;;;;;;;;;;2.59;100.00;101147.53;8186819;28;19922;-80
2022/01/15 09:47:33;;;;;;;;;;;;;;;2.58;100.00;101149.41;8199648;28;19969;-80
2022/01/15 09:51:35;;;;;;;;;;;;;;;2.50;100.00;101138.53;8190685;28;20296;-80
2022/01/15 09:55:37;;;;;;;;;;;;;;;2.63;100.00;101132.63;8192246;28;19927;-81
2022/01/15 09:59:38;;;;;;;;;;;;;;;2.77;100.00;101131.97;8192412;28;19930;-80
2022/01/15 10:03:40;;;;;;;;;;;;;;;2.68;100.00;101133.81;8180754;28;19978;-80
2022/01/15 10:07:56;;;;;;;;;;;;;;;2.87;100.00;101129.09;8188226;28;19926;-80
2022/01/15 10:11:58;;;;;;;;;;;;;;;2.91;100.00;101123.13;8188724;28;19946;-79
2022/01/15 10:15:59;;;;;;;;;;;;;;;2.80;100.00;101119.91;8196832;28;19944;-80
2022/01/15 10:20:05;;;;;;;;;;;;;;;2.90;100.00;101121.44;8182305;28;20280;-80
2022/01/15 10:24:07;;;;;;;;;;;;;;;3.03;100.00;101115.50;8189730;28;19950;-80
2022/01/15 10:28:09;;;;;;;;;;;;;;;2.97;100.00;101113.44;8195389;28;19933;-80
2022/01/15 10:32:14;;;;;;;;;;;;;;;2.90;100.00;101105.09;8198862;28;19977;-80
2022/01/15 10:36:20;;;;;;;;;;;;;;;2.88;100.00;101107.13;8192271;28;19926;-81
2022/01/15 10:40:23;;;;;;;;;;;;;;;3.01;100.00;101103.94;8193924;28;19926;-80
2022/01/15 10:44:31;;;;;;;;;;;;;;;3.09;100.00;101103.06;8184576;28;19978;-80
2022/01/15 10:48:34;;;;;;;;;;;;;;;3.13;100.00;101104.44;8200969;28;19923;-80
2022/01/15 10:52:35;;;;;;;;;;;;;;;3.10;100.00;101097.47;8194794;28;19930;-80
2022/01/15 10:56:36;;;;;;;;;;;;;;;3.24;99.73;101095.91;8196642;28;19997;-80
2022/01/15 11:00:49;;;;;;;;;;;;;;;3.31;99.74;101090.66;8192776;28;19933;-80
2022/01/15 11:04:51;;;;;;;;;;;;;;;3.24;99.68;101092.34;8191918;28;20289;-80
2022/01/15 11:08:52;;;;;;;;;;;;;;;3.24;99.80;101085.03;8193191;28;19984;-80
2022/01/15 11:12:54;;;;;;;;;;;;;;;3.34;100.00;101076.69;8216402;28;20408;-80
2022/01/15 11:16:57;;;;;;;;;;;;;;;3.33;98.60;101070.41;8197994;28;20288;-80
2022/01/15 11:21:00;;;;;;;;;;;;;;;3.21;99.03;101069.03;8195387;28;19981;-80
2022/01/15 11:25:01;;;;;;;;;;;;;;;3.30;98.87;101061.69;8197997;28;19970;-79
2022/01/15 11:29:03;;;;;;;;;;;;;;;3.35;99.85;101059.31;8194047;28;19922;-80
2022/01/15 11:33:04;;;;;;;;;;;;;;;3.44;98.85;101050.09;8190309;28;19922;-79
2022/01/15 11:37:16;;;;;;;;;;;;;;;3.55;98.23;101049.75;8189639;28;19954;-79
2022/01/15 11:41:27;;;;;;;;;;;;;;;3.64;98.55;101047.84;8178566;28;19922;-79
2022/01/15 11:45:35;;;;;;;;;;;;;;;3.63;98.72;101047.00;8170028;28;19934;-79
2022/01/15 11:49:37;;;;;;;;;;;;;;;3.63;98.43;101027.09;8189539;28;19927;-80
2022/01/15 11:53:45;;;;;;;;;;;;;;;3.74;98.22;101025.84;8188377;28;19934;-80
2022/01/15 11:57:48;;;;;;;;;;;;;;;3.72;97.77;101019.69;8193147;28;19985;-80
2022/01/15 12:01:51;;;;;;;;;;;;;;;3.71;96.92;101009.84;8192964;28;19922;-80
2022/01/15 12:05:58;;;;;;;;;;;;;;;3.66;98.17;101007.66;8196061;28;19996;-79
2022/01/15 12:10:02;;;;;;;;;;;;;;;3.84;97.75;101010.13;8185573;28;19926;-80
2022/01/15 12:14:04;;;;;;;;;;;;;;;3.81;98.23;101002.31;8193472;28;19926;-79
2022/01/15 12:18:16;;;;;;;;;;;;;;;3.68;97.40;101000.13;8193289;28;19981;-79
2022/01/15 12:22:36;;;;;;;;;;;;;;;3.63;98.26;101000.66;8195964;28;19964;-79
2022/01/15 12:26:37;;;;;;;;;;;;;;;3.71;98.72;101004.38;8187867;28;19922;-79
2022/01/15 12:30:40;;;;;;;;;;;;;;;3.73;98.17;100985.97;8197207;28;19958;-79
2022/01/15 12:34:42;;;;;;;;;;;;;;;3.70;98.60;100986.34;8196608;28;20447;-79
2022/01/15 12:38:49;;;;;;;;;;;;;;;3.70;98.58;100975.44;8198186;28;19926;-79
2022/01/15 12:42:55;;;;;;;;;;;;;;;3.71;98.83;100979.84;8198912;28;19926;-79
2022/01/15 12:46:57;;;;;;;;;;;;;;;3.58;97.53;100975.81;8189350;28;19936;-79
2022/01/15 12:51:01;;;;;;;;;;;;;;;3.58;98.80;100983.97;8192670;28;20348;-80
2022/01/15 12:55:02;;;;;;;;;;;;;;;3.56;99.16;100977.84;8191995;28;19926;-80
2022/01/15 12:59:04;;;;;;;;;;;;;;;3.51;98.02;100968.50;8182554;28;19996;-80
2022/01/15 13:03:07;;;;;;;;;;;;;;;3.56;98.45;100969.66;8205181;28;19970;-80
2022/01/15 13:07:08;;;;;;;;;;;;;;;3.59;98.30;100952.97;8191038;28;20462;-79
2022/01/15 13:15:19;;;;;;;;;;;;;;;3.38;98.89;100939.09;8187275;28;19922;-80
2022/01/15 13:19:21;;;;;;;;;;;;;;;3.36;99.44;100930.22;8200593;28;19933;-80
2022/01/15 13:23:25;;;;;;;;;;;;;;;3.42;99.74;100930.41;8193222;28;19926;-80
2022/01/15 13:27:27;;;;;;;;;;;;;;;3.31;99.82;100924.47;8194183;28;20363;-78
2022/01/15 13:31:29;;;;;;;;;;;;;;;3.28;100.00;100933.00;8193859;28;20017;-81
2022/01/15 13:35:31;;;;;;;;;;;;;;;3.30;100.00;100920.03;8192733;28;19926;-79
2022/01/15 13:39:33;;;;;;;;;;;;;;;3.34;100.00;100927.69;8192805;28;19922;-80
2022/01/15 13:43:35;;;;;;;;;;;;;;;3.35;99.29;100917.63;8191137;28;19930;-79
2022/01/15 13:47:36;;;;;;;;;;;;;;;3.40;100.00;100915.25;8190742;28;19965;-79
2022/01/15 13:56:22;;;;;;;;;;;;;;;3.37;99.93;100908.28;8192622;28;20013;-79
2022/01/15 14:00:23;;;;;;;;;;;;;;;3.16;100.00;100900.69;8192816;28;20446;-79
2022/01/15 14:04:39;;;;;;;;;;;;;;;3.18;100.00;100892.31;8196653;28;20569;-79
2022/01/15 14:08:41;;;;;;;;;;;;;;;3.13;100.00;100883.84;8186527;28;19933;-79
2022/01/15 14:12:42;;;;;;;;;;;;;;;3.08;100.00;100888.97;8200448;28;19926;-80
2022/01/15 14:16:43;;;;;;;;;;;;;;;3.02;100.00;100889.66;8193586;28;20356;-80
2022/01/15 14:21:15;;;;;;;;;;;;;;;2.98;100.00;100886.44;8200763;28;19930;-80
2022/01/15 14:25:22;;;;;;;;;;;;;;;2.93;100.00;100876.06;8189636;28;19986;-80
2022/01/15 14:29:25;;;;;;;;;;;;;;;2.96;100.00;100866.69;8186964;28;20014;-80
2022/01/15 14:33:27;;;;;;;;;;;;;;;3.01;100.00;100877.91;8195560;28;19981;-80
2022/01/15 14:37:28;;;;;;;;;;;;;;;2.91;100.00;100871.81;8194262;28;19980;-80
2022/01/15 14:41:31;;;;;;;;;;;;;;;2.88;100.00;100873.00;8195432;28;19933;-80
2022/01/15 14:45:36;;;;;;;;;;;;;;;2.84;100.00;100873.53;8185890;28;20620;-80
2022/01/15 14:49:38;;;;;;;;;;;;;;;2.70;100.00;100873.22;8179944;28;19926;-80
2022/01/15 14:53:39;;;;;;;;;;;;;;;2.72;100.00;100873.88;8194992;28;19993;-80
2022/01/15 14:57:41;;;;;;;;;;;;;;;2.74;100.00;100860.13;8195266;28;20527;-80
2022/01/15 15:01:43;;;;;;;;;;;;;;;2.71;100.00;100858.59;8192242;28;19930;-79
2022/01/15 15:05:45;;;;;;;;;;;;;;;2.78;100.00;100855.19;8185359;28;19926;-81
2022/01/15 15:09:46;;;;;;;;;;;;;;;2.68;100.00;100850.78;8185212;28;20380;-79
2022/01/15 15:13:48;;;;;;;;;;;;;;;2.52;100.00;100850.78;8192205;28;19926;-79
2022/01/15 15:17:50;;;;;;;;;;;;;;;2.43;100.00;100839.06;8182441;28;19926;-80
2022/01/15 15:21:51;;;;;;;;;;;;;;;2.36;100.00;100850.81;8191021;28;20002;-80
2022/01/15 15:25:53;;;;;;;;;;;;;;;2.28;100.00;100849.78;8191563;28;19946;-80
2022/01/15 15:29:54;;;;;;;;;;;;;;;2.18;100.00;100854.56;8188112;28;19930;-80
2022/01/15 15:33:56;;;;;;;;;;;;;;;2.26;100.00;100857.28;8187652;28;19934;-80
2022/01/15 15:37:58;;;;;;;;;;;;;;;2.19;100.00;100867.13;8194539;28;19926;-80
2022/01/15 15:41:59;;;;;;;;;;;;;;;2.30;100.00;100857.78;8192423;28;20347;-79
2022/01/15 15:46:01;;;;;;;;;;;;;;;2.28;100.00;100847.06;8204326;28;19922;-80
2022/01/15 15:50:03;;;;;;;;;;;;;;;2.28;100.00;100844.34;8192560;28;19966;-80
2022/01/15 15:54:04;;;;;;;;;;;;;;;2.21;100.00;100843.34;8198840;28;20400;-79
2022/01/15 15:58:07;;;;;;;;;;;;;;;2.21;100.00;100827.03;8196035;28;19977;-79
2022/01/15 16:02:08;;;;;;;;;;;;;;;2.22;100.00;100831.44;8196332;28;19922;-80
2022/01/15 16:06:10;;;;;;;;;;;;;;;2.10;100.00;100827.34;8187144;28;19931;-79
2022/01/15 16:10:14;;;;;;;;;;;;;;;2.14;100.00;100833.28;8183109;28;112432;-79
2022/01/15 16:14:17;;;;;;;;;;;;;;;2.23;100.00;100822.28;8191790;28;19926;-79
2022/01/15 16:18:20;;;;;;;;;;;;;;;2.27;100.00;100830.94;8188059;28;19926;-80
2022/01/15 16:22:21;;;;;;;;;;;;;;;2.13;100.00;100821.56;8197402;28;19926;-79
2022/01/15 16:26:23;;;;;;;;;;;;;;;2.20;100.00;100835.34;8193102;28;19974;-79
2022/01/15 16:30:24;;;;;;;;;;;;;;;2.29;100.00;100834.34;8203705;28;19926;-80
2022/01/15 16:34:26;;;;;;;;;;;;;;;2.25;100.00;100835.69;8181249;28;110679;-80
2022/01/15 16:39:18;;;;;;;;;;;;;;;2.24;100.00;100831.28;8355446;27;19929;-78
2022/01/15 16:43:19;;;;;;;;;;;;;;;2.23;100.00;100833.16;8276802;28;19925;-79
2022/01/15 16:49:25;;;;;;;;;;;;;;;2.35;100.00;100828.22;12084760;19;114963;-79
2022/01/15 16:53:27;;;;;;;;;;;;;;;2.41;100.00;100822.09;12289915;19;19935;-79
2022/01/15 16:57:29;;;;;;;;;;;;;;;2.45;100.00;100817.16;12291786;19;19923;-79
2022/01/15 17:01:30;;;;;;;;;;;;;;;2.45;100.00;100817.16;12279023;19;19907;-79
2022/01/15 17:05:32;;;;;;;;;;;;;;;2.41;100.00;100830.25;12287760;19;19911;-79
2022/01/15 17:09:34;;;;;;;;;;;;;;;2.42;100.00;100823.78;12279636;19;20425;-79
2022/01/15 17:13:35;;;;;;;;;;;;;;;2.35;100.00;100827.34;12288018;19;19915;-79
2022/01/15 17:17:38;;;;;;;;;;;;;;;2.37;100.00;100830.75;12291614;19;19911;-79
2022/01/15 17:21:40;;;;;;;;;;;;;;;2.37;100.00;100831.59;12295836;19;19914;-80
2022/01/15 17:25:42;;;;;;;;;;;;;;;2.41;100.00;100826.66;12216207;19;66726;-80
2022/01/15 17:29:43;;;;;;;;;;;;;;;2.47;100.00;100828.72;12285043;19;20709;-79
2022/01/15 17:33:45;;;;;;;;;;;;;;;2.53;100.00;100811.69;12289690;19;19972;-79
2022/01/15 17:37:46;;;;;;;;;;;;;;;2.56;100.00;100818.63;12281108;19;19915;-79
2022/01/15 17:45:18;;;;;;;10.57;5.18;;;;;;;2.62;100.00;100815.25;12289827;19;20377;-79
2022/01/15 17:49:20;;;;;;;12.20;6.00;;;;;;;2.64;100.00;100816.75;12267747;19;20074;-79
2022/01/15 17:53:21;;;;;;;9.82;4.55;;;;;;;2.60;100.00;100818.13;12294798;19;20014;-79
2022/01/15 17:57:23;;;;;;;10.70;5.68;;;;;;;2.61;100.00;100814.38;12278870;19;20084;-79
2022/01/15 18:01:25;;;;;;;12.73;6.35;;;;;;;2.60;100.00;100820.84;12287570;19;20528;-80
2022/01/15 18:05:27;;;;;;;12.77;6.32;;;;;;;2.61;100.00;100833.41;12294549;19;20058;-79
2022/01/15 18:09:32;;;;;;;11.90;6.18;;;;;;;2.59;100.00;100832.78;12291150;19;20010;-79
2022/01/15 18:13:33;;;;;;;14.93;6.72;;;;;;;2.62;100.00;100829.69;12294959;19;20031;-80
2022/01/15 18:17:35;;;;;;;14.75;7.25;;;;;;;2.66;100.00;100817.44;12289665;19;20021;-79
2022/01/15 18:21:38;;;;;;;14.20;6.85;;;;;;;2.62;100.00;100823.41;12290242;19;20021;-79
2022/01/15 18:25:40;;;;;;;14.85;7.25;;;;;;;2.35;100.00;100838.22;12291843;19;20018;-79
2022/01/15 18:29:42;;;;;;;14.00;6.85;;;;;;;2.33;100.00;100837.56;12291222;19;20014;-80
2022/01/15 18:33:48;;;;;;;14.55;7.45;;;;;;;2.33;100.00;100841.13;12290969;19;20027;-80
2022/01/15 18:37:50;;;;;;;14.10;7.43;;;;;;;2.37;100.00;100826.16;12291644;19;20011;-80
2022/01/15 18:41:52;;;;;;;15.90;7.57;;;;;;;2.42;100.00;100823.78;12277442;19;20110;-80
2022/01/15 18:45:53;;;;;;;16.83;7.38;;;;;;;2.45;100.00;100828.03;12290116;19;20310;-79
2022/01/15 18:49:58;;;;;;;15.13;7.18;;;;;;;2.50;100.00;100822.94;12287149;19;20082;-79
2022/01/15 18:54:00;;;;;;;13.73;7.28;;;;;;;2.43;100.00;100820.03;12273157;19;20035;-79
2022/01/15 18:58:02;;;;;;;17.15;8.30;;;;;;;2.28;100.00;100816.31;12237312;19;20385;-78
2022/01/15 19:02:05;;;;;;;14.00;6.97;;;;;;;2.25;100.00;100814.78;12242540;19;20145;-79
2022/01/15 19:06:08;;;;;;;17.08;7.43;;;;;;;2.14;100.00;100817.84;12238868;19;20010;-79
2022/01/15 19:10:10;;;;;;;18.83;8.65;;;;;;;2.07;100.00;100813.25;12236255;19;20014;-80
2022/01/15 19:14:12;;;;;;;17.08;8.20;;;;;;;2.07;100.00;100822.25;12242751;19;20014;-79
2022/01/15 19:18:13;;;;;;;16.55;7.72;;;;;;;2.08;100.00;100833.97;12243237;19;20018;-79
2022/01/15 19:22:15;;;;;;;15.18;7.63;;;;;;;2.14;100.00;100861.38;12238754;19;20038;-79
2022/01/15 19:26:17;;;;;;;16.27;8.87;;;;;;;2.23;100.00;100922.91;12242618;19;20099;-79
2022/01/15 19:30:18;;;;;;;18.95;8.77;;;;;;;2.32;100.00;100914.72;12241152;19;20074;-79
2022/01/15 19:34:20;;;;;;;15.15;8.38;;;;;;;2.39;100.00;100899.44;12237184;19;20007;-80
2022/01/15 19:38:22;;;;;;;19.13;9.75;;;;;;;2.41;100.00;100816.66;12238226;19;20059;-80
2022/01/15 19:42:24;;;;;;;18.98;8.50;;;;;;;2.42;100.00;100773.97;12237789;19;20011;-80
2022/01/15 19:46:25;;;;;;;16.77;8.30;;;;;;;2.41;100.00;100680.63;12241907;19;20031;-79
2022/01/15 19:50:29;;;;;;;23.83;9.55;;;;;;;2.40;100.00;100667.19;12236168;19;20011;-79
2022/01/15 19:54:30;;;;;;;19.20;9.20;;;;;;;2.38;100.00;100647.47;12239500;19;20006;-80
2022/01/15 19:58:33;;;;;;;23.35;11.48;;;;;;;2.30;100.00;100704.63;12235528;19;20074;-80
2022/01/15 20:02:35;;;;;;;24.05;14.30;;;;;;;2.27;100.00;100752.91;12238596;19;20030;-80
2022/01/15 20:06:36;;;;;;;20.88;10.10;;;;;;;2.29;100.00;100747.31;12231979;19;20038;-80
2022/01/15 20:10:39;;;;;;;19.20;8.75;;;;;;;2.28;100.00;100729.28;12235154;19;20074;-80
2022/01/15 20:14:40;;;;;;;18.00;8.75;;;;;;;2.19;100.00;100731.16;12238468;19;20694;-80
2022/01/15 20:18:44;;;;;;;18.25;8.23;;;;;;;2.14;100.00;100679.19;12238290;19;20010;-77
2022/01/15 20:22:46;;;;;;;22.10;10.30;;;;;;;2.18;100.00;100691.41;12235525;19;20018;-78
2022/01/15 20:26:48;;;;;;;18.45;8.93;;;;;;;2.17;100.00;100695.16;12240939;19;20010;-79
2022/01/15 20:30:50;;;;;;;16.83;8.73;;;;;;;2.13;100.00;100699.22;12241649;19;20014;-82
2022/01/15 20:34:52;;;;;;;19.30;8.82;;;;;;;2.09;100.00;100708.75;12242853;19;20468;-81
2022/01/15 20:38:55;;;;;;;20.40;9.80;;;;;;;2.16;100.00;100736.09;12242958;19;20014;-82
2022/01/15 20:42:57;;;;;;;18.42;10.07;;;;;;;2.14;100.00;100733.56;12242557;19;20491;-80
2022/01/15 20:46:59;;;;;;;16.67;8.63;;;;;;;2.14;100.00;100746.28;12241304;19;20038;-80
2022/01/15 20:51:01;;;;;;;15.88;8.30;;;;;;;2.17;100.00;100737.78;12241234;19;20015;-81
2022/01/15 20:55:04;;;;;;;16.38;7.90;;;;;;;2.20;100.00;100737.44;12242127;19;20011;-80
2022/01/15 20:59:06;;;;;;;17.52;8.60;;;;;;;2.25;100.00;100726.91;12242810;19;20650;-80